sensor_id;sensor_type;location;lat;lon;timestamp;temperature;humidity
7720;DHT22;3902;49.474;8.616;2023-06-22T00:01:56;24.70;99.90
7720;DHT22;3902;49.474;8.616;2023-06-22T00:04:21;24.70;99.90
7720;DHT22;3902;49.474;8.616;2023-06-22T00:06:47;24.70;99.90
7720;DHT22;3902;49.474;8.616;2023-06-22T00:09:12;24.70;99.90
7720;DHT22;3902;49.474;8.616;2023-06-22T00:11:38;24.70;99.90
7720;DHT22;3902;49.474;8.616;2023-06-22T00:14:04;24.70;99.90
7720;DHT22;3902;49.474;8.616;2023-06-22T00:16:30;24.70;99.90
7720;DHT22;3902;49.474;8.616;2023-06-22T00:18:56;24.70;99.90
7720;DHT22;3902;49.474;8.616;2023-06-22T00:21:29;24.70;99.90
7720;DHT22;3902;49.474;8.616;2023-06-22T00:23:56;24.60;99.90
7720;DHT22;3902;49.474;8.616;2023-06-22T00:26:22;24.60;99.90
7720;DHT22;3902;49.474;8.616;2023-06-22T00:28:48;24.60;99.90
7720;DHT22;3902;49.474;8.616;2023-06-22T00:31:13;24.60;99.90
7720;DHT22;3902;49.474;8.616;2023-06-22T00:33:39;24.60;99.90
7720;DHT22;3902;49.474;8.616;2023-06-22T00:36:05;24.60;99.90
7720;DHT22;3902;49.474;8.616;2023-06-22T00:38:33;24.60;99.90
7720;DHT22;3902;49.474;8.616;2023-06-22T00:40:58;24.60;99.90
7720;DHT22;3902;49.474;8.616;2023-06-22T00:43:24;24.60;99.90
7720;DHT22;3902;49.474;8.616;2023-06-22T00:45:49;24.60;99.90
7720;DHT22;3902;49.474;8.616;2023-06-22T00:48:15;24.50;99.90
7720;DHT22;3902;49.474;8.616;2023-06-22T00:50:41;24.40;99.90
7720;DHT22;3902;49.474;8.616;2023-06-22T00:53:08;24.20;99.90
7720;DHT22;3902;49.474;8.616;2023-06-22T00:55:35;24.00;99.90
7720;DHT22;3902;49.474;8.616;2023-06-22T00:58:03;24.00;99.90
7720;DHT22;3902;49.474;8.616;2023-06-22T01:00:31;24.00;99.90
7720;DHT22;3902;49.474;8.616;2023-06-22T01:02:57;24.10;99.90
7720;DHT22;3902;49.474;8.616;2023-06-22T01:05:23;24.10;99.90
7720;DHT22;3902;49.474;8.616;2023-06-22T01:10:55;24.10;99.90
7720;DHT22;3902;49.474;8.616;2023-06-22T01:13:50;24.00;99.90
7720;DHT22;3902;49.474;8.616;2023-06-22T01:16:26;24.00;99.90
7720;DHT22;3902;49.474;8.616;2023-06-22T01:19:01;24.00;99.90
7720;DHT22;3902;49.474;8.616;2023-06-22T01:21:31;23.90;99.90
7720;DHT22;3902;49.474;8.616;2023-06-22T01:24:25;23.80;99.90
7720;DHT22;3902;49.474;8.616;2023-06-22T01:27:05;23.80;99.90
7720;DHT22;3902;49.474;8.616;2023-06-22T01:29:34;23.80;99.90
7720;DHT22;3902;49.474;8.616;2023-06-22T01:32:01;23.90;99.90
7720;DHT22;3902;49.474;8.616;2023-06-22T01:34:29;23.80;99.90
7720;DHT22;3902;49.474;8.616;2023-06-22T01:36:56;23.80;99.90
7720;DHT22;3902;49.474;8.616;2023-06-22T01:39:23;23.80;99.90
7720;DHT22;3902;49.474;8.616;2023-06-22T01:41:49;23.80;99.90
7720;DHT22;3902;49.474;8.616;2023-06-22T01:44:15;23.80;99.90
7720;DHT22;3902;49.474;8.616;2023-06-22T01:46:41;23.60;99.90
7720;DHT22;3902;49.474;8.616;2023-06-22T01:49:07;23.60;99.90
7720;DHT22;3902;49.474;8.616;2023-06-22T01:51:33;23.60;99.90
7720;DHT22;3902;49.474;8.616;2023-06-22T01:53:59;23.70;99.90
7720;DHT22;3902;49.474;8.616;2023-06-22T01:56:26;23.60;99.90
7720;DHT22;3902;49.474;8.616;2023-06-22T01:59:14;23.60;99.90
7720;DHT22;3902;49.474;8.616;2023-06-22T02:01:47;23.50;99.90
7720;DHT22;3902;49.474;8.616;2023-06-22T02:04:21;23.60;99.90
7720;DHT22;3902;49.474;8.616;2023-06-22T02:06:52;23.60;99.90
7720;DHT22;3902;49.474;8.616;2023-06-22T02:09:21;23.50;99.90
7720;DHT22;3902;49.474;8.616;2023-06-22T02:11:50;23.50;99.90
7720;DHT22;3902;49.474;8.616;2023-06-22T02:14:20;23.50;99.90
7720;DHT22;3902;49.474;8.616;2023-06-22T02:16:46;23.50;99.90
7720;DHT22;3902;49.474;8.616;2023-06-22T02:19:11;23.40;99.90
7720;DHT22;3902;49.474;8.616;2023-06-22T02:21:37;23.40;99.90
7720;DHT22;3902;49.474;8.616;2023-06-22T02:24:03;23.40;99.90
7720;DHT22;3902;49.474;8.616;2023-06-22T02:26:30;23.40;99.90
7720;DHT22;3902;49.474;8.616;2023-06-22T02:28:55;23.40;99.90
7720;DHT22;3902;49.474;8.616;2023-06-22T02:31:21;23.40;99.90
7720;DHT22;3902;49.474;8.616;2023-06-22T02:33:47;23.30;99.90
7720;DHT22;3902;49.474;8.616;2023-06-22T02:36:13;23.30;99.90
7720;DHT22;3902;49.474;8.616;2023-06-22T02:38:42;23.30;99.90
7720;DHT22;3902;49.474;8.616;2023-06-22T02:41:14;23.20;99.90
7720;DHT22;3902;49.474;8.616;2023-06-22T02:43:44;23.20;99.90
7720;DHT22;3902;49.474;8.616;2023-06-22T02:46:10;23.20;99.90
7720;DHT22;3902;49.474;8.616;2023-06-22T02:48:35;23.20;99.90
7720;DHT22;3902;49.474;8.616;2023-06-22T02:51:01;23.20;99.90
7720;DHT22;3902;49.474;8.616;2023-06-22T02:53:26;23.10;99.90
7720;DHT22;3902;49.474;8.616;2023-06-22T02:55:52;23.10;99.90
7720;DHT22;3902;49.474;8.616;2023-06-22T02:58:17;23.10;99.90
7720;DHT22;3902;49.474;8.616;2023-06-22T03:00:43;23.00;99.90
7720;DHT22;3902;49.474;8.616;2023-06-22T03:03:08;23.00;99.90
7720;DHT22;3902;49.474;8.616;2023-06-22T03:05:34;23.00;99.90
7720;DHT22;3902;49.474;8.616;2023-06-22T03:08:00;23.10;99.90
7720;DHT22;3902;49.474;8.616;2023-06-22T03:10:26;23.00;99.90
7720;DHT22;3902;49.474;8.616;2023-06-22T03:12:51;23.00;99.90
7720;DHT22;3902;49.474;8.616;2023-06-22T03:15:17;23.00;99.90
7720;DHT22;3902;49.474;8.616;2023-06-22T03:17:42;23.00;99.90
7720;DHT22;3902;49.474;8.616;2023-06-22T03:20:09;22.90;99.90
7720;DHT22;3902;49.474;8.616;2023-06-22T03:22:39;22.90;99.90
7720;DHT22;3902;49.474;8.616;2023-06-22T03:25:06;22.90;99.90
7720;DHT22;3902;49.474;8.616;2023-06-22T03:27:42;22.80;99.90
7720;DHT22;3902;49.474;8.616;2023-06-22T03:30:10;22.80;99.90
7720;DHT22;3902;49.474;8.616;2023-06-22T03:32:36;22.80;99.90
7720;DHT22;3902;49.474;8.616;2023-06-22T03:35:02;22.80;99.90
7720;DHT22;3902;49.474;8.616;2023-06-22T03:37:28;22.80;99.90
7720;DHT22;3902;49.474;8.616;2023-06-22T03:39:53;22.80;99.90
7720;DHT22;3902;49.474;8.616;2023-06-22T03:42:19;22.70;99.90
7720;DHT22;3902;49.474;8.616;2023-06-22T03:44:45;22.80;99.90
7720;DHT22;3902;49.474;8.616;2023-06-22T03:47:10;22.80;99.90
7720;DHT22;3902;49.474;8.616;2023-06-22T03:49:36;22.70;99.90
7720;DHT22;3902;49.474;8.616;2023-06-22T03:52:02;22.70;99.90
7720;DHT22;3902;49.474;8.616;2023-06-22T03:54:29;22.70;99.90
7720;DHT22;3902;49.474;8.616;2023-06-22T03:56:56;22.70;99.90
7720;DHT22;3902;49.474;8.616;2023-06-22T03:59:21;22.70;99.90
7720;DHT22;3902;49.474;8.616;2023-06-22T04:01:47;22.70;99.90
7720;DHT22;3902;49.474;8.616;2023-06-22T04:04:12;22.70;99.90
7720;DHT22;3902;49.474;8.616;2023-06-22T04:06:38;22.70;99.90
7720;DHT22;3902;49.474;8.616;2023-06-22T04:09:05;22.60;99.90
7720;DHT22;3902;49.474;8.616;2023-06-22T04:11:30;22.70;99.90
7720;DHT22;3902;49.474;8.616;2023-06-22T04:13:56;22.70;99.90
7720;DHT22;3902;49.474;8.616;2023-06-22T04:16:21;22.60;99.90
7720;DHT22;3902;49.474;8.616;2023-06-22T04:18:47;22.60;99.90
7720;DHT22;3902;49.474;8.616;2023-06-22T04:21:13;22.60;99.90
7720;DHT22;3902;49.474;8.616;2023-06-22T04:23:39;22.60;99.90
7720;DHT22;3902;49.474;8.616;2023-06-22T04:26:04;22.60;99.90
7720;DHT22;3902;49.474;8.616;2023-06-22T04:28:30;22.60;99.90
7720;DHT22;3902;49.474;8.616;2023-06-22T04:31:03;22.60;99.90
7720;DHT22;3902;49.474;8.616;2023-06-22T04:33:29;22.60;99.90
7720;DHT22;3902;49.474;8.616;2023-06-22T04:35:55;22.60;99.90
7720;DHT22;3902;49.474;8.616;2023-06-22T04:38:22;22.60;99.90
7720;DHT22;3902;49.474;8.616;2023-06-22T04:40:48;22.60;99.90
7720;DHT22;3902;49.474;8.616;2023-06-22T04:43:14;22.60;99.90
7720;DHT22;3902;49.474;8.616;2023-06-22T04:45:40;22.60;99.90
7720;DHT22;3902;49.474;8.616;2023-06-22T04:48:05;22.60;99.90
7720;DHT22;3902;49.474;8.616;2023-06-22T04:50:31;22.60;99.90
7720;DHT22;3902;49.474;8.616;2023-06-22T04:52:57;22.70;99.90
7720;DHT22;3902;49.474;8.616;2023-06-22T04:55:24;22.70;99.90
7720;DHT22;3902;49.474;8.616;2023-06-22T04:57:51;22.70;99.90
7720;DHT22;3902;49.474;8.616;2023-06-22T05:00:20;22.70;99.90
7720;DHT22;3902;49.474;8.616;2023-06-22T05:02:48;22.70;99.90
7720;DHT22;3902;49.474;8.616;2023-06-22T05:05:14;22.70;99.90
7720;DHT22;3902;49.474;8.616;2023-06-22T05:07:42;22.80;99.90
7720;DHT22;3902;49.474;8.616;2023-06-22T05:10:11;22.80;99.90
7720;DHT22;3902;49.474;8.616;2023-06-22T05:12:41;22.90;99.90
7720;DHT22;3902;49.474;8.616;2023-06-22T05:15:08;22.90;99.90
7720;DHT22;3902;49.474;8.616;2023-06-22T05:17:34;22.90;99.90
7720;DHT22;3902;49.474;8.616;2023-06-22T05:20:00;22.90;99.90
7720;DHT22;3902;49.474;8.616;2023-06-22T05:22:25;22.90;99.90
7720;DHT22;3902;49.474;8.616;2023-06-22T05:24:51;22.90;99.90
7720;DHT22;3902;49.474;8.616;2023-06-22T05:27:16;23.00;99.90
7720;DHT22;3902;49.474;8.616;2023-06-22T05:29:42;23.00;99.90
7720;DHT22;3902;49.474;8.616;2023-06-22T05:32:08;23.10;99.90
7720;DHT22;3902;49.474;8.616;2023-06-22T05:34:33;23.10;99.90
7720;DHT22;3902;49.474;8.616;2023-06-22T05:36:59;23.10;99.90
7720;DHT22;3902;49.474;8.616;2023-06-22T05:39:25;23.20;99.90
7720;DHT22;3902;49.474;8.616;2023-06-22T05:41:51;23.20;99.90
7720;DHT22;3902;49.474;8.616;2023-06-22T05:44:17;23.10;99.90
7720;DHT22;3902;49.474;8.616;2023-06-22T05:46:43;23.20;99.90
7720;DHT22;3902;49.474;8.616;2023-06-22T05:49:11;23.20;99.90
7720;DHT22;3902;49.474;8.616;2023-06-22T05:51:36;23.30;99.90
7720;DHT22;3902;49.474;8.616;2023-06-22T05:54:02;23.20;99.90
7720;DHT22;3902;49.474;8.616;2023-06-22T05:56:27;23.30;99.90
7720;DHT22;3902;49.474;8.616;2023-06-22T05:58:53;23.30;99.90
7720;DHT22;3902;49.474;8.616;2023-06-22T06:01:18;23.30;99.90
7720;DHT22;3902;49.474;8.616;2023-06-22T06:03:44;23.40;99.90
7720;DHT22;3902;49.474;8.616;2023-06-22T06:06:10;23.40;99.90
7720;DHT22;3902;49.474;8.616;2023-06-22T06:08:37;23.50;99.90
7720;DHT22;3902;49.474;8.616;2023-06-22T06:11:02;23.50;99.90
7720;DHT22;3902;49.474;8.616;2023-06-22T06:13:28;23.50;99.90
7720;DHT22;3902;49.474;8.616;2023-06-22T06:15:54;23.50;99.90
7720;DHT22;3902;49.474;8.616;2023-06-22T06:18:21;23.60;99.90
7720;DHT22;3902;49.474;8.616;2023-06-22T06:20:46;23.60;99.90
7720;DHT22;3902;49.474;8.616;2023-06-22T06:23:12;23.60;99.90
7720;DHT22;3902;49.474;8.616;2023-06-22T06:25:38;23.60;99.90
7720;DHT22;3902;49.474;8.616;2023-06-22T06:28:03;23.70;99.90
7720;DHT22;3902;49.474;8.616;2023-06-22T06:30:29;23.70;99.90
7720;DHT22;3902;49.474;8.616;2023-06-22T06:32:54;23.80;99.90
7720;DHT22;3902;49.474;8.616;2023-06-22T06:35:21;23.80;99.90
7720;DHT22;3902;49.474;8.616;2023-06-22T06:37:48;23.80;99.90
7720;DHT22;3902;49.474;8.616;2023-06-22T06:40:15;23.80;99.90
7720;DHT22;3902;49.474;8.616;2023-06-22T06:42:43;23.90;99.90
7720;DHT22;3902;49.474;8.616;2023-06-22T06:45:21;23.90;99.90
7720;DHT22;3902;49.474;8.616;2023-06-22T06:47:51;24.00;99.90
7720;DHT22;3902;49.474;8.616;2023-06-22T06:50:17;24.00;99.90
7720;DHT22;3902;49.474;8.616;2023-06-22T06:52:42;24.00;99.90
7720;DHT22;3902;49.474;8.616;2023-06-22T06:55:09;24.10;99.90
7720;DHT22;3902;49.474;8.616;2023-06-22T06:57:37;24.10;99.90
7720;DHT22;3902;49.474;8.616;2023-06-22T07:00:05;24.20;99.90
7720;DHT22;3902;49.474;8.616;2023-06-22T07:02:35;24.20;99.90
7720;DHT22;3902;49.474;8.616;2023-06-22T07:05:00;24.30;99.90
7720;DHT22;3902;49.474;8.616;2023-06-22T07:07:30;24.40;99.90
7720;DHT22;3902;49.474;8.616;2023-06-22T07:09:55;24.40;99.90
7720;DHT22;3902;49.474;8.616;2023-06-22T07:12:21;24.40;99.90
7720;DHT22;3902;49.474;8.616;2023-06-22T07:14:46;24.50;99.90
7720;DHT22;3902;49.474;8.616;2023-06-22T07:17:12;24.50;99.90
7720;DHT22;3902;49.474;8.616;2023-06-22T07:19:37;24.50;99.90
7720;DHT22;3902;49.474;8.616;2023-06-22T07:22:03;24.60;99.90
7720;DHT22;3902;49.474;8.616;2023-06-22T07:24:29;24.70;99.90
7720;DHT22;3902;49.474;8.616;2023-06-22T07:26:54;24.70;99.90
7720;DHT22;3902;49.474;8.616;2023-06-22T07:29:20;24.70;99.90
7720;DHT22;3902;49.474;8.616;2023-06-22T07:31:46;24.70;99.90
7720;DHT22;3902;49.474;8.616;2023-06-22T07:34:13;24.80;99.90
7720;DHT22;3902;49.474;8.616;2023-06-22T07:36:38;24.90;99.90
7720;DHT22;3902;49.474;8.616;2023-06-22T07:39:04;24.90;99.90
7720;DHT22;3902;49.474;8.616;2023-06-22T07:41:30;24.90;99.90
7720;DHT22;3902;49.474;8.616;2023-06-22T07:43:56;25.00;99.90
7720;DHT22;3902;49.474;8.616;2023-06-22T07:46:22;25.10;99.90
7720;DHT22;3902;49.474;8.616;2023-06-22T07:48:48;25.10;99.90
7720;DHT22;3902;49.474;8.616;2023-06-22T07:51:14;25.20;99.90
7720;DHT22;3902;49.474;8.616;2023-06-22T07:53:43;25.20;99.90
7720;DHT22;3902;49.474;8.616;2023-06-22T07:56:12;25.30;99.90
7720;DHT22;3902;49.474;8.616;2023-06-22T07:58:38;25.20;99.90
7720;DHT22;3902;49.474;8.616;2023-06-22T08:01:04;25.30;99.90
7720;DHT22;3902;49.474;8.616;2023-06-22T08:03:30;25.30;99.90
7720;DHT22;3902;49.474;8.616;2023-06-22T08:05:55;25.30;99.90
7720;DHT22;3902;49.474;8.616;2023-06-22T08:08:21;25.40;99.90
7720;DHT22;3902;49.474;8.616;2023-06-22T08:10:47;25.40;99.90
7720;DHT22;3902;49.474;8.616;2023-06-22T08:13:12;25.60;99.90
7720;DHT22;3902;49.474;8.616;2023-06-22T08:15:38;25.60;99.90
7720;DHT22;3902;49.474;8.616;2023-06-22T08:18:03;25.70;99.90
7720;DHT22;3902;49.474;8.616;2023-06-22T08:20:29;25.70;99.90
7720;DHT22;3902;49.474;8.616;2023-06-22T08:22:55;25.80;99.90
7720;DHT22;3902;49.474;8.616;2023-06-22T08:25:23;25.80;99.90
7720;DHT22;3902;49.474;8.616;2023-06-22T08:27:48;25.90;99.90
7720;DHT22;3902;49.474;8.616;2023-06-22T08:30:15;26.00;99.90
7720;DHT22;3902;49.474;8.616;2023-06-22T08:32:40;26.10;99.90
7720;DHT22;3902;49.474;8.616;2023-06-22T08:35:06;26.10;99.90
7720;DHT22;3902;49.474;8.616;2023-06-22T08:37:33;26.10;99.90
7720;DHT22;3902;49.474;8.616;2023-06-22T08:40:02;26.20;99.90
7720;DHT22;3902;49.474;8.616;2023-06-22T08:42:30;26.30;99.90
7720;DHT22;3902;49.474;8.616;2023-06-22T08:44:55;26.30;99.90
7720;DHT22;3902;49.474;8.616;2023-06-22T08:47:21;26.40;99.90
7720;DHT22;3902;49.474;8.616;2023-06-22T08:49:46;26.40;99.90
7720;DHT22;3902;49.474;8.616;2023-06-22T08:52:13;26.50;99.90
7720;DHT22;3902;49.474;8.616;2023-06-22T08:54:38;26.60;99.90
7720;DHT22;3902;49.474;8.616;2023-06-22T08:57:04;26.70;99.90
7720;DHT22;3902;49.474;8.616;2023-06-22T08:59:29;26.70;99.90
7720;DHT22;3902;49.474;8.616;2023-06-22T09:01:55;26.80;99.90
7720;DHT22;3902;49.474;8.616;2023-06-22T09:04:21;26.80;99.90
7720;DHT22;3902;49.474;8.616;2023-06-22T09:06:48;26.90;99.90
7720;DHT22;3902;49.474;8.616;2023-06-22T09:09:16;26.90;99.90
7720;DHT22;3902;49.474;8.616;2023-06-22T09:11:42;27.00;99.90
7720;DHT22;3902;49.474;8.616;2023-06-22T09:14:08;27.10;99.90
7720;DHT22;3902;49.474;8.616;2023-06-22T09:16:34;27.10;99.90
7720;DHT22;3902;49.474;8.616;2023-06-22T09:19:00;27.20;99.90
7720;DHT22;3902;49.474;8.616;2023-06-22T09:21:25;27.20;99.90
7720;DHT22;3902;49.474;8.616;2023-06-22T09:23:51;27.30;99.90
7720;DHT22;3902;49.474;8.616;2023-06-22T09:26:20;27.40;99.90
7720;DHT22;3902;49.474;8.616;2023-06-22T09:28:46;27.40;99.90
7720;DHT22;3902;49.474;8.616;2023-06-22T09:31:12;27.40;99.90
7720;DHT22;3902;49.474;8.616;2023-06-22T09:33:40;27.50;99.90
7720;DHT22;3902;49.474;8.616;2023-06-22T09:36:06;27.50;99.90
7720;DHT22;3902;49.474;8.616;2023-06-22T09:38:37;27.60;99.90
7720;DHT22;3902;49.474;8.616;2023-06-22T09:41:03;27.60;99.90
7720;DHT22;3902;49.474;8.616;2023-06-22T09:43:29;27.70;99.90
7720;DHT22;3902;49.474;8.616;2023-06-22T09:45:54;27.80;99.90
7720;DHT22;3902;49.474;8.616;2023-06-22T09:48:20;27.90;99.90
7720;DHT22;3902;49.474;8.616;2023-06-22T09:50:46;28.00;99.90
7720;DHT22;3902;49.474;8.616;2023-06-22T09:53:11;28.10;99.90
7720;DHT22;3902;49.474;8.616;2023-06-22T09:55:37;28.20;99.90
7720;DHT22;3902;49.474;8.616;2023-06-22T09:58:02;28.30;99.90
7720;DHT22;3902;49.474;8.616;2023-06-22T10:00:28;28.40;99.90
7720;DHT22;3902;49.474;8.616;2023-06-22T10:02:54;28.50;99.90
7720;DHT22;3902;49.474;8.616;2023-06-22T10:05:21;28.60;99.90
7720;DHT22;3902;49.474;8.616;2023-06-22T10:07:47;28.50;99.90
7720;DHT22;3902;49.474;8.616;2023-06-22T10:10:13;28.70;99.90
7720;DHT22;3902;49.474;8.616;2023-06-22T10:12:45;28.70;99.90
7720;DHT22;3902;49.474;8.616;2023-06-22T10:15:11;28.80;99.90
7720;DHT22;3902;49.474;8.616;2023-06-22T10:17:37;28.90;99.90
7720;DHT22;3902;49.474;8.616;2023-06-22T10:20:04;29.00;99.90
7720;DHT22;3902;49.474;8.616;2023-06-22T10:22:36;29.00;99.90
7720;DHT22;3902;49.474;8.616;2023-06-22T10:25:01;29.00;99.90
7720;DHT22;3902;49.474;8.616;2023-06-22T10:27:27;29.00;99.90
7720;DHT22;3902;49.474;8.616;2023-06-22T10:29:52;29.10;99.90
7720;DHT22;3902;49.474;8.616;2023-06-22T10:32:19;29.10;99.90
7720;DHT22;3902;49.474;8.616;2023-06-22T10:34:44;29.10;99.90
7720;DHT22;3902;49.474;8.616;2023-06-22T10:37:10;29.20;99.90
7720;DHT22;3902;49.474;8.616;2023-06-22T10:39:36;29.20;99.90
7720;DHT22;3902;49.474;8.616;2023-06-22T10:42:01;29.20;99.90
7720;DHT22;3902;49.474;8.616;2023-06-22T10:44:27;29.20;99.90
7720;DHT22;3902;49.474;8.616;2023-06-22T10:46:52;29.20;99.90
7720;DHT22;3902;49.474;8.616;2023-06-22T10:49:18;29.20;99.90
7720;DHT22;3902;49.474;8.616;2023-06-22T10:51:43;29.20;99.90
7720;DHT22;3902;49.474;8.616;2023-06-22T10:54:09;29.20;99.90
7720;DHT22;3902;49.474;8.616;2023-06-22T10:56:34;29.40;99.90
7720;DHT22;3902;49.474;8.616;2023-06-22T10:59:00;29.50;99.90
7720;DHT22;3902;49.474;8.616;2023-06-22T11:01:27;29.60;99.90
7720;DHT22;3902;49.474;8.616;2023-06-22T11:03:53;29.80;99.90
7720;DHT22;3902;49.474;8.616;2023-06-22T11:06:18;30.00;99.90
7720;DHT22;3902;49.474;8.616;2023-06-22T11:08:44;30.20;99.90
7720;DHT22;3902;49.474;8.616;2023-06-22T11:11:10;30.30;99.90
7720;DHT22;3902;49.474;8.616;2023-06-22T11:13:36;30.40;99.90
7720;DHT22;3902;49.474;8.616;2023-06-22T11:16:01;30.50;99.90
7720;DHT22;3902;49.474;8.616;2023-06-22T11:18:27;30.60;99.90
7720;DHT22;3902;49.474;8.616;2023-06-22T11:20:52;30.60;99.90
7720;DHT22;3902;49.474;8.616;2023-06-22T11:23:18;30.70;99.90
7720;DHT22;3902;49.474;8.616;2023-06-22T11:25:44;30.70;99.90
7720;DHT22;3902;49.474;8.616;2023-06-22T11:28:10;30.80;99.90
7720;DHT22;3902;49.474;8.616;2023-06-22T11:30:35;30.80;99.90
7720;DHT22;3902;49.474;8.616;2023-06-22T11:33:01;30.80;99.90
7720;DHT22;3902;49.474;8.616;2023-06-22T11:35:26;30.80;99.90
7720;DHT22;3902;49.474;8.616;2023-06-22T11:37:52;30.80;99.90
7720;DHT22;3902;49.474;8.616;2023-06-22T11:40:17;30.80;99.90
7720;DHT22;3902;49.474;8.616;2023-06-22T11:42:43;30.80;99.90
7720;DHT22;3902;49.474;8.616;2023-06-22T11:45:09;30.70;99.90
7720;DHT22;3902;49.474;8.616;2023-06-22T11:47:34;30.80;99.90
7720;DHT22;3902;49.474;8.616;2023-06-22T11:50:02;30.90;99.90
7720;DHT22;3902;49.474;8.616;2023-06-22T11:52:27;30.90;99.90
7720;DHT22;3902;49.474;8.616;2023-06-22T11:54:53;30.90;99.90
7720;DHT22;3902;49.474;8.616;2023-06-22T11:57:18;30.80;99.90
7720;DHT22;3902;49.474;8.616;2023-06-22T11:59:44;30.80;99.90
7720;DHT22;3902;49.474;8.616;2023-06-22T12:02:09;30.80;99.90
7720;DHT22;3902;49.474;8.616;2023-06-22T12:04:35;30.80;99.90
7720;DHT22;3902;49.474;8.616;2023-06-22T12:07:00;30.90;99.90
7720;DHT22;3902;49.474;8.616;2023-06-22T12:09:26;30.90;99.90
7720;DHT22;3902;49.474;8.616;2023-06-22T12:11:51;30.90;99.90
7720;DHT22;3902;49.474;8.616;2023-06-22T12:14:17;30.90;99.90
7720;DHT22;3902;49.474;8.616;2023-06-22T12:16:42;31.00;99.90
7720;DHT22;3902;49.474;8.616;2023-06-22T12:19:09;31.00;99.90
7720;DHT22;3902;49.474;8.616;2023-06-22T12:21:35;31.10;99.90
7720;DHT22;3902;49.474;8.616;2023-06-22T12:24:00;31.20;99.90
7720;DHT22;3902;49.474;8.616;2023-06-22T12:26:26;31.20;99.90
7720;DHT22;3902;49.474;8.616;2023-06-22T12:28:51;31.30;99.90
7720;DHT22;3902;49.474;8.616;2023-06-22T12:31:17;31.20;99.90
7720;DHT22;3902;49.474;8.616;2023-06-22T12:33:42;31.20;99.90
7720;DHT22;3902;49.474;8.616;2023-06-22T12:36:08;31.30;99.90
7720;DHT22;3902;49.474;8.616;2023-06-22T12:38:34;31.30;99.90
7720;DHT22;3902;49.474;8.616;2023-06-22T12:40:59;31.40;99.90
7720;DHT22;3902;49.474;8.616;2023-06-22T12:43:25;31.50;99.90
7720;DHT22;3902;49.474;8.616;2023-06-22T12:45:50;31.50;99.90
7720;DHT22;3902;49.474;8.616;2023-06-22T12:48:16;31.50;99.90
7720;DHT22;3902;49.474;8.616;2023-06-22T12:50:42;31.50;99.90
7720;DHT22;3902;49.474;8.616;2023-06-22T12:53:07;31.60;99.90
7720;DHT22;3902;49.474;8.616;2023-06-22T12:55:33;31.70;99.90
7720;DHT22;3902;49.474;8.616;2023-06-22T12:57:59;31.80;99.90
7720;DHT22;3902;49.474;8.616;2023-06-22T13:00:24;31.80;99.90
7720;DHT22;3902;49.474;8.616;2023-06-22T13:02:50;31.90;99.90
7720;DHT22;3902;49.474;8.616;2023-06-22T13:05:15;31.70;99.90
7720;DHT22;3902;49.474;8.616;2023-06-22T13:07:41;31.70;99.90
7720;DHT22;3902;49.474;8.616;2023-06-22T13:10:08;31.60;99.90
7720;DHT22;3902;49.474;8.616;2023-06-22T13:12:33;31.60;99.90
7720;DHT22;3902;49.474;8.616;2023-06-22T13:14:59;31.50;99.90
7720;DHT22;3902;49.474;8.616;2023-06-22T13:17:25;31.50;99.90
7720;DHT22;3902;49.474;8.616;2023-06-22T13:19:50;31.60;99.90
7720;DHT22;3902;49.474;8.616;2023-06-22T13:22:35;31.70;99.90
7720;DHT22;3902;49.474;8.616;2023-06-22T13:25:09;31.70;99.90
7720;DHT22;3902;49.474;8.616;2023-06-22T13:27:39;31.80;99.90
7720;DHT22;3902;49.474;8.616;2023-06-22T13:30:05;31.90;99.90
7720;DHT22;3902;49.474;8.616;2023-06-22T13:32:31;32.10;99.90
7720;DHT22;3902;49.474;8.616;2023-06-22T13:34:57;32.20;99.90
7720;DHT22;3902;49.474;8.616;2023-06-22T13:37:23;32.40;99.90
7720;DHT22;3902;49.474;8.616;2023-06-22T13:39:48;32.60;99.90
7720;DHT22;3902;49.474;8.616;2023-06-22T13:42:14;32.70;99.90
7720;DHT22;3902;49.474;8.616;2023-06-22T13:44:39;32.50;99.90
7720;DHT22;3902;49.474;8.616;2023-06-22T13:47:06;32.60;99.90
7720;DHT22;3902;49.474;8.616;2023-06-22T13:49:31;32.60;99.90
7720;DHT22;3902;49.474;8.616;2023-06-22T13:51:57;32.60;99.90
7720;DHT22;3902;49.474;8.616;2023-06-22T13:54:22;32.60;99.90
7720;DHT22;3902;49.474;8.616;2023-06-22T13:56:48;32.60;99.90
7720;DHT22;3902;49.474;8.616;2023-06-22T13:59:13;32.60;99.90
7720;DHT22;3902;49.474;8.616;2023-06-22T14:01:39;32.60;99.90
7720;DHT22;3902;49.474;8.616;2023-06-22T14:04:05;32.50;99.90
7720;DHT22;3902;49.474;8.616;2023-06-22T14:06:31;32.40;99.90
7720;DHT22;3902;49.474;8.616;2023-06-22T14:08:56;32.40;99.90
7720;DHT22;3902;49.474;8.616;2023-06-22T14:11:22;32.20;99.90
7720;DHT22;3902;49.474;8.616;2023-06-22T14:13:47;32.10;99.90
7720;DHT22;3902;49.474;8.616;2023-06-22T14:16:13;32.00;99.90
7720;DHT22;3902;49.474;8.616;2023-06-22T14:18:38;31.80;99.90
7720;DHT22;3902;49.474;8.616;2023-06-22T14:21:04;31.70;99.90
7720;DHT22;3902;49.474;8.616;2023-06-22T14:23:30;31.60;99.90
7720;DHT22;3902;49.474;8.616;2023-06-22T14:25:55;31.50;99.90
7720;DHT22;3902;49.474;8.616;2023-06-22T14:28:21;31.30;99.90
7720;DHT22;3902;49.474;8.616;2023-06-22T14:30:46;31.20;99.90
7720;DHT22;3902;49.474;8.616;2023-06-22T14:33:12;31.00;99.90
7720;DHT22;3902;49.474;8.616;2023-06-22T14:35:38;31.00;99.90
7720;DHT22;3902;49.474;8.616;2023-06-22T14:38:03;30.80;99.90
7720;DHT22;3902;49.474;8.616;2023-06-22T14:40:29;30.70;99.90
7720;DHT22;3902;49.474;8.616;2023-06-22T14:42:54;30.60;99.90
7720;DHT22;3902;49.474;8.616;2023-06-22T14:45:22;30.40;99.90
7720;DHT22;3902;49.474;8.616;2023-06-22T14:47:48;30.30;99.90
7720;DHT22;3902;49.474;8.616;2023-06-22T14:50:13;30.30;99.90
7720;DHT22;3902;49.474;8.616;2023-06-22T14:52:39;30.20;99.90
7720;DHT22;3902;49.474;8.616;2023-06-22T14:55:05;30.10;99.90
7720;DHT22;3902;49.474;8.616;2023-06-22T14:57:30;30.10;99.90
7720;DHT22;3902;49.474;8.616;2023-06-22T14:59:56;30.00;99.90
7720;DHT22;3902;49.474;8.616;2023-06-22T15:02:21;30.00;99.90
7720;DHT22;3902;49.474;8.616;2023-06-22T15:04:47;29.90;99.90
7720;DHT22;3902;49.474;8.616;2023-06-22T15:07:14;29.90;99.90
7720;DHT22;3902;49.474;8.616;2023-06-22T15:09:39;29.90;99.90
7720;DHT22;3902;49.474;8.616;2023-06-22T15:12:08;29.90;99.90
7720;DHT22;3902;49.474;8.616;2023-06-22T15:14:40;29.90;99.90
7720;DHT22;3902;49.474;8.616;2023-06-22T15:17:07;29.90;99.90
7720;DHT22;3902;49.474;8.616;2023-06-22T15:19:35;29.90;99.90
7720;DHT22;3902;49.474;8.616;2023-06-22T15:22:01;29.90;99.90
7720;DHT22;3902;49.474;8.616;2023-06-22T15:24:26;30.00;99.90
7720;DHT22;3902;49.474;8.616;2023-06-22T15:26:52;30.00;99.90
7720;DHT22;3902;49.474;8.616;2023-06-22T15:29:17;30.00;99.90
7720;DHT22;3902;49.474;8.616;2023-06-22T15:31:43;30.00;99.90
7720;DHT22;3902;49.474;8.616;2023-06-22T15:34:08;30.10;99.90
7720;DHT22;3902;49.474;8.616;2023-06-22T15:36:34;30.20;99.90
7720;DHT22;3902;49.474;8.616;2023-06-22T15:39:00;30.30;99.90
7720;DHT22;3902;49.474;8.616;2023-06-22T15:41:26;30.20;99.90
7720;DHT22;3902;49.474;8.616;2023-06-22T15:43:53;30.20;99.90
7720;DHT22;3902;49.474;8.616;2023-06-22T15:46:18;30.10;99.90
7720;DHT22;3902;49.474;8.616;2023-06-22T15:48:44;30.10;99.90
7720;DHT22;3902;49.474;8.616;2023-06-22T15:51:09;30.10;99.90
7720;DHT22;3902;49.474;8.616;2023-06-22T15:53:36;30.10;99.90
7720;DHT22;3902;49.474;8.616;2023-06-22T15:56:01;30.10;99.90
7720;DHT22;3902;49.474;8.616;2023-06-22T15:58:27;30.10;99.90
7720;DHT22;3902;49.474;8.616;2023-06-22T16:00:52;30.10;99.90